Time;durP1;ratioP1;P1;durP2;ratioP2;P2;SDS_P1;SDS_P2;PMS_P1;PMS_P2;Temp;Humidity;BMP_temperature;BMP_pressure;BME280_temperature;BME280_humidity;BME280_pressure;Samples;Min_cycle;Max_cycle;Signal;HPM_P1;HPM_P2
2021/01/17 00:00:53;;;;;;;56.15;26.05;;;;;;;-12.18;45.37;99219.22;1797922;77;21182;-43
2021/01/17 00:03:24;;;;;;;62.67;27.10;;;;;;;-12.10;45.32;99216.31;1798484;79;20972;-43
2021/01/17 00:05:55;;;;;;;;;;;;;;;-12.03;45.11;99216.26;1775314;81;21151;-43
2021/01/17 00:08:25;;;;;;;58.40;26.42;;;;;;;-12.13;45.21;99233.74;1778590;79;20333;-43
2021/01/17 00:10:54;;;;;;;66.82;26.95;;;;;;;-12.39;45.43;99227.48;1785725;78;21585;-43
2021/01/17 00:13:23;;;;;;;60.33;26.15;;;;;;;-12.50;45.60;99230.78;1735937;81;21815;-43
2021/01/17 00:15:51;;;;;;;63.25;26.60;;;;;;;-12.53;45.69;99233.80;1759631;81;21016;-43
2021/01/17 00:18:20;;;;;;;60.05;27.27;;;;;;;-12.44;45.62;99230.70;1752442;81;21775;-43
2021/01/17 00:20:51;;;;;;;58.70;23.95;;;;;;;-12.38;45.44;99223.83;1730361;81;21151;-43
2021/01/17 00:23:20;;;;;;;62.80;26.70;;;;;;;-12.56;45.57;99235.03;1763841;81;21169;-43
2021/01/17 00:25:49;;;;;;;59.08;26.02;;;;;;;-12.90;45.99;99228.97;1739010;81;21220;-43
2021/01/17 00:28:17;;;;;;;63.80;25.65;;;;;;;-13.11;46.59;99227.52;1746359;79;21182;-42
2021/01/17 00:30:46;;;;;;;46.23;21.80;;;;;;;-13.27;47.03;99222.81;1739945;81;21136;-43
2021/01/17 00:33:17;;;;;;;52.17;23.35;;;;;;;-13.41;47.33;99224.70;1738849;81;21604;-43
2021/01/17 00:35:45;;;;;;;57.08;23.47;;;;;;;-13.49;47.43;99225.42;1742304;81;21179;-43
2021/01/17 00:38:13;;;;;;;51.40;24.23;;;;;;;-13.50;47.58;99221.20;1746352;79;22231;-42
2021/01/17 00:40:42;;;;;;;50.48;23.02;;;;;;;-13.39;47.54;99221.86;1746339;81;21154;-43
2021/01/17 00:43:10;;;;;;;47.23;23.00;;;;;;;-13.23;47.26;99212.25;1743194;81;21609;-43
2021/01/17 00:45:38;;;;;;;46.85;23.18;;;;;;;-13.03;46.94;99213.41;1755415;81;21140;-43
2021/01/17 00:48:08;;;;;;;46.95;22.37;;;;;;;-12.88;46.67;99216.02;1726205;81;21105;-43
2021/01/17 00:50:37;;;;;;;47.90;21.97;;;;;;;-13.03;46.34;99176.38;1746739;79;21188;-43
2021/01/17 00:53:08;;;;;;;58.68;22.85;;;;;;;-12.59;46.02;99217.70;1736746;82;20992;-44
2021/01/17 00:55:41;;;;;;;52.17;22.93;;;;;;;-12.50;45.81;99221.13;1765932;81;21171;-43
2021/01/17 00:58:12;;;;;;;47.90;22.25;;;;;;;-12.40;45.48;99219.34;1735421;82;21125;-44
2021/01/17 01:00:41;;;;;;;47.47;22.50;;;;;;;-12.26;45.38;99222.13;1736019;81;21707;-43
2021/01/17 01:03:17;;;;;;;54.00;23.50;;;;;;;-12.20;45.10;99219.96;1733444;81;21203;-43
2021/01/17 01:05:46;;;;;;;47.10;22.30;;;;;;;-12.16;44.93;99222.43;1736057;82;21167;-43
2021/01/17 01:08:14;;;;;;;46.83;21.13;;;;;;;-12.09;44.79;99222.34;1723894;81;21017;-43
2021/01/17 01:10:43;;;;;;;47.50;22.67;;;;;;;-12.02;44.61;99216.56;1732422;82;21593;-42
2021/01/17 01:13:12;;;;;;;50.45;23.18;;;;;;;-11.99;44.43;99226.06;1759869;81;21110;-43
2021/01/17 01:15:40;;;;;;;46.83;22.37;;;;;;;-11.97;44.29;99227.96;1740040;81;21355;-43
2021/01/17 01:18:09;;;;;;;45.12;21.40;;;;;;;-11.93;44.18;99232.23;1713810;81;21329;-43
2021/01/17 01:20:37;;;;;;;50.60;23.30;;;;;;;-11.96;44.05;99232.18;1757890;81;21184;-43
2021/01/17 01:23:05;;;;;;;50.60;22.65;;;;;;;-11.96;43.94;99226.95;1748401;81;21161;-43
2021/01/17 01:25:33;;;;;;;47.35;21.52;;;;;;;-11.93;43.75;99225.20;1764875;81;21417;-44
2021/01/17 01:28:02;;;;;;;50.15;23.00;;;;;;;-11.93;43.57;99226.51;1752617;79;21149;-43
2021/01/17 01:30:30;;;;;;;47.43;20.65;;;;;;;-11.94;43.30;99224.10;1722911;82;21171;-43
2021/01/17 01:32:58;;;;;;;43.60;20.92;;;;;;;-11.94;43.17;99223.59;1738395;81;21144;-43
2021/01/17 01:35:27;;;;;;;44.05;20.55;;;;;;;-11.93;43.07;99225.20;1737177;81;21175;-44
2021/01/17 01:37:55;;;;;;;45.73;21.57;;;;;;;-11.99;42.73;99218.22;1732769;81;21147;-42
2021/01/17 01:40:23;;;;;;;47.43;22.10;;;;;;;-12.08;42.99;99224.75;1743789;79;21318;-43
2021/01/17 01:42:52;;;;;;;40.92;21.40;;;;;;;-12.08;43.08;99223.44;1784316;79;21588;-43
2021/01/17 01:45:20;;;;;;;42.48;20.97;;;;;;;-12.07;43.04;99228.97;1786268;79;21122;-42
2021/01/17 01:47:50;;;;;;;43.05;21.55;;;;;;;-12.01;42.93;99226.00;1803304;79;21098;-43
2021/01/17 01:50:19;;;;;;;46.00;22.07;;;;;;;-12.01;42.89;99218.96;1782421;79;21114;-43
2021/01/17 01:52:47;;;;;;;45.55;22.07;;;;;;;-12.03;42.84;99213.64;1788592;77;22186;-43
2021/01/17 01:55:19;;;;;;;48.02;22.48;;;;;;;-11.99;42.73;99211.69;1752019;80;21197;-43
2021/01/17 01:57:48;;;;;;;53.25;23.12;;;;;;;-11.99;42.62;99219.52;1782930;77;21016;-44
2021/01/17 02:00:19;;;;;;;41.75;21.62;;;;;;;-11.99;42.51;99214.80;1809370;79;21560;-43
2021/01/17 02:02:48;;;;;;;44.65;22.02;;;;;;;-12.00;42.54;99219.73;1790884;79;21153;-43
2021/01/17 02:05:16;;;;;;;42.40;22.30;;;;;;;-11.98;42.52;99219.02;1749392;80;21424;-42
2021/01/17 02:08:29;;;;;;;47.43;21.57;;;;;;;-11.97;42.56;99217.51;1800049;79;21130;-43
2021/01/17 02:11:03;;;;;;;48.60;22.95;;;;;;;-11.95;42.51;99214.66;1780952;79;21152;-43
2021/01/17 02:13:38;;;;;;;47.33;22.87;;;;;;;-11.99;42.31;99227.37;1790921;79;21349;-43
2021/01/17 02:16:07;;;;;;;44.40;22.35;;;;;;;-12.01;42.26;99221.58;1799367;79;21572;-43
2021/01/17 02:18:36;;;;;;;44.58;20.25;;;;;;;-12.01;42.30;99218.96;1781565;79;21573;-43
2021/01/17 02:21:05;;;;;;;39.90;20.50;;;;;;;-12.09;42.17;99214.00;1783343;79;22169;-43
2021/01/17 02:23:44;;;;;;;45.40;22.70;;;;;;;-12.30;42.10;99219.66;1749033;80;21608;-43
2021/01/17 02:26:13;;;;;;;42.38;20.45;;;;;;;-12.62;42.22;99222.83;1782246;79;21592;-44
2021/01/17 02:28:42;;;;;;;45.58;22.25;;;;;;;-12.95;42.83;99208.73;1763166;79;21170;-43
2021/01/17 02:31:11;;;;;;;;;;;;;;;-13.24;43.59;99213.26;1795962;79;21413;-43
2021/01/17 02:33:40;;;;;;;52.53;22.85;;;;;;;-13.33;43.85;99215.32;1778654;79;20220;-43
2021/01/17 02:36:16;;;;;;;48.15;21.87;;;;;;;-13.38;44.29;99224.77;1811063;79;21118;-43
2021/01/17 02:38:56;;;;;;;42.20;23.83;;;;;;;-13.27;44.43;99229.34;1746779;79;21122;-43
2021/01/17 02:41:50;;;;;;;43.10;22.32;;;;;;;-13.15;44.48;99218.52;1783637;79;21142;-43
2021/01/17 02:44:18;;;;;;;44.10;22.37;;;;;;;-12.99;44.24;99221.11;1784743;79;21572;-43
2021/01/17 02:46:49;;;;;;;50.63;24.15;;;;;;;-12.85;44.08;99220.80;1786098;79;21194;-43
2021/01/17 02:49:18;;;;;;;46.60;22.42;;;;;;;-12.75;44.01;99216.41;1788189;79;21151;-43
2021/01/17 02:51:48;;;;;;;43.00;20.95;;;;;;;-12.65;43.72;99214.13;1796346;79;21150;-44
2021/01/17 02:54:21;;;;;;;43.85;22.05;;;;;;;-12.59;43.34;99217.20;1782496;79;21162;-43
2021/01/17 02:57:08;;;;;;;49.10;21.35;;;;;;;-12.53;43.09;99222.84;1790760;79;21172;-42
2021/01/17 02:59:54;;;;;;;44.38;20.77;;;;;;;-12.48;42.89;99215.68;1785041;79;21595;-43
2021/01/17 03:02:33;;;;;;;45.60;21.50;;;;;;;-12.50;42.59;99215.11;1782711;79;21130;-43
2021/01/17 03:05:06;;;;;;;43.40;21.70;;;;;;;-12.66;42.65;99219.05;1781429;80;21130;-43
2021/01/17 03:07:35;;;;;;;48.13;22.62;;;;;;;-12.69;42.94;99222.60;1766366;79;21071;-43
2021/01/17 03:10:09;;;;;;;39.45;16.75;;;;;;;-12.68;42.95;99215.06;1803644;79;21276;-43
2021/01/17 03:12:37;;;;;;;43.08;21.33;;;;;;;-12.67;43.00;99209.61;1783634;79;21054;-44
2021/01/17 03:15:07;;;;;;;48.85;23.10;;;;;;;-12.65;42.96;99219.34;1782282;79;21150;-43
2021/01/17 03:17:35;;;;;;;45.90;20.97;;;;;;;-12.68;42.75;99210.62;1801332;79;21142;-43
2021/01/17 03:20:06;;;;;;;43.35;21.10;;;;;;;-12.70;42.71;99220.99;1794761;79;21146;-43
2021/01/17 03:22:34;;;;;;;43.95;21.45;;;;;;;-12.67;42.62;99220.05;1790698;79;22245;-43
2021/01/17 03:25:03;;;;;;;48.25;22.52;;;;;;;-13.02;42.45;99153.17;1783957;79;20940;-44
2021/01/17 03:27:32;;;;;;;44.05;22.02;;;;;;;-12.58;42.21;99210.14;1782619;79;21023;-43
2021/01/17 03:30:00;;;;;;;43.08;21.73;;;;;;;-12.55;42.06;99207.12;1782839;79;21117;-43
2021/01/17 03:32:28;;;;;;;46.10;21.65;;;;;;;-12.54;42.05;99208.72;1798060;79;21133;-43
2021/01/17 03:34:56;;;;;;;43.83;21.85;;;;;;;-12.52;42.19;99205.38;1782120;79;21453;-43
2021/01/17 03:37:25;;;;;;;44.58;21.27;;;;;;;-12.49;42.27;99197.91;1781663;79;21415;-43
2021/01/17 03:39:53;;;;;;;44.55;21.07;;;;;;;-12.44;42.06;99203.28;1786273;79;21151;-43
2021/01/17 03:42:22;;;;;;;50.67;23.95;;;;;;;-12.43;42.17;99197.55;1751413;80;21198;-43
2021/01/17 03:44:50;;;;;;;46.60;21.90;;;;;;;-12.41;42.15;99200.77;1754611;79;21557;-44
2021/01/17 03:47:18;;;;;;;43.83;21.80;;;;;;;-12.42;42.10;99195.24;1737563;80;21563;-43
2021/01/17 03:49:47;;;;;;;47.05;21.70;;;;;;;-12.47;42.22;99192.47;1720896;81;21166;-43
2021/01/17 03:52:15;;;;;;;45.03;22.70;;;;;;;-12.46;42.23;99190.97;1696916;83;21167;-44
2021/01/17 03:54:45;;;;;;;47.40;22.15;;;;;;;-12.38;42.15;99191.18;1770774;79;21185;-43
2021/01/17 03:57:13;;;;;;;50.35;23.67;;;;;;;-12.37;42.10;99184.45;1769241;80;21170;-44
2021/01/17 03:59:42;;;;;;;48.23;24.05;;;;;;;-12.37;42.06;99193.59;1766780;79;21443;-43
2021/01/17 04:02:10;;;;;;;50.85;22.45;;;;;;;-12.37;42.03;99188.87;1772617;79;21134;-43
2021/01/17 04:04:38;;;;;;;45.58;22.10;;;;;;;-12.39;42.06;99193.52;1779509;80;21126;-43
2021/01/17 04:07:07;;;;;;;47.35;21.73;;;;;;;-12.43;41.90;99185.30;1709057;83;21175;-43
2021/01/17 04:09:35;;;;;;;48.78;22.67;;;;;;;-12.52;41.86;99187.09;1758744;80;21151;-43
2021/01/17 04:12:05;;;;;;;43.52;22.40;;;;;;;-12.64;41.92;99188.83;1770344;80;21362;-43
2021/01/17 04:14:33;;;;;;;46.63;21.33;;;;;;;-12.70;42.14;99180.03;1752404;79;21202;-43
2021/01/17 04:17:02;;;;;;;49.45;23.10;;;;;;;-12.78;42.33;99182.92;1758134;80;21170;-42
2021/01/17 04:19:30;;;;;;;51.13;23.42;;;;;;;-12.92;42.53;99187.42;1760819;80;21174;-44
2021/01/17 04:21:58;;;;;;;45.05;22.98;;;;;;;-12.95;42.74;99182.64;1744883;79;21126;-43
2021/01/17 04:24:26;;;;;;;46.88;22.80;;;;;;;-12.91;42.91;99194.24;1772423;80;22095;-43
2021/01/17 04:26:59;;;;;;;43.63;21.33;;;;;;;-12.84;42.81;99187.17;1768778;79;21167;-43
2021/01/17 04:29:27;;;;;;;47.80;23.30;;;;;;;-12.79;42.77;99190.45;1747817;80;21154;-43
2021/01/17 04:31:57;;;;;;;44.30;21.52;;;;;;;-12.76;42.73;99184.80;1749557;80;21162;-43
2021/01/17 04:34:25;;;;;;;47.15;23.00;;;;;;;-12.72;42.18;99192.98;1744474;80;21606;-43
2021/01/17 04:36:55;;;;;;;;;;;;;;;-12.92;41.97;99192.64;1762099;80;21304;-43
2021/01/17 04:39:25;;;;;;;;;;;;;;;-13.05;42.42;99194.05;1772083;80;20195;-43
2021/01/17 04:41:57;;;;;;;46.23;22.00;;;;;;;-13.10;42.39;99192.58;1778865;79;20252;-43
2021/01/17 04:44:31;;;;;;;54.65;23.80;;;;;;;-13.12;42.52;99192.03;1797997;79;22240;-43
2021/01/17 04:47:04;;;;;;;49.00;23.90;;;;;;;-13.08;42.74;99191.87;1783702;79;21194;-43
2021/01/17 04:49:38;;;;;;;48.75;23.67;;;;;;;-12.97;42.88;99192.47;1782646;79;22350;-43
2021/01/17 04:52:09;;;;;;;52.05;23.60;;;;;;;-12.88;42.87;99199.05;1801739;79;21230;-43
2021/01/17 04:54:37;;;;;;;50.48;24.47;;;;;;;-12.78;42.79;99203.27;1751357;80;21154;-43
2021/01/17 04:57:15;;;;;;;49.15;24.45;;;;;;;-12.75;42.58;99202.56;1803513;79;21178;-44
2021/01/17 04:59:47;;;;;;;52.38;23.70;;;;;;;-12.75;42.56;99194.73;1780020;79;21186;-43
2021/01/17 05:02:51;;;;;;;48.92;23.92;;;;;;;-12.72;42.41;99186.46;1800889;79;21197;-43
2021/01/17 05:05:23;;;;;;;49.20;23.70;;;;;;;-12.70;42.23;99189.17;1829345;77;21166;-43
2021/01/17 05:08:02;;;;;;;50.20;24.80;;;;;;;-12.67;42.27;99185.31;1746492;81;21052;-44
2021/01/17 05:10:38;;;;;;;54.05;24.37;;;;;;;-12.60;42.27;99184.77;1772486;79;21126;-44
2021/01/17 05:13:12;;;;;;;49.85;24.55;;;;;;;-12.53;42.06;99186.80;1784799;79;21596;-44
2021/01/17 05:15:41;;;;;;;52.20;24.90;;;;;;;-12.50;42.01;99183.78;1805884;79;22236;-44
2021/01/17 05:18:11;;;;;;;48.05;23.40;;;;;;;-12.50;41.98;99185.08;1804666;79;21146;-44
2021/01/17 05:20:39;;;;;;;45.20;21.43;;;;;;;-12.47;41.86;99193.78;1787064;78;21165;-44
2021/01/17 05:23:10;;;;;;;48.68;22.90;;;;;;;-12.51;41.86;99185.59;1781672;79;21174;-43
2021/01/17 05:25:39;;;;;;;47.62;22.75;;;;;;;-12.48;42.00;99184.34;1789669;79;21162;-44
2021/01/17 05:28:07;;;;;;;49.03;23.55;;;;;;;-12.55;41.87;99185.73;1729185;79;21301;-44
2021/01/17 05:30:35;;;;;;;43.60;22.22;;;;;;;-12.57;42.01;99199.99;1809446;79;21118;-44
2021/01/17 05:33:07;;;;;;;52.43;24.40;;;;;;;-12.62;42.14;99188.89;1813358;79;21024;-43
2021/01/17 05:36:23;;;;;;;48.70;23.90;;;;;;;-12.55;42.31;99191.45;1759329;79;22742;-45
2021/01/17 05:39:02;;;;;;;49.13;25.10;;;;;;;-12.61;42.49;99186.58;1743738;82;21020;-44
2021/01/17 05:41:30;;;;;;;50.70;25.20;;;;;;;-12.55;42.35;99188.84;1733550;82;22266;-44
2021/01/17 05:43:59;;;;;;;49.80;25.13;;;;;;;-12.55;41.97;99185.73;1735166;82;21652;-45
2021/01/17 05:46:27;;;;;;;53.78;25.48;;;;;;;-12.55;41.97;99185.73;1719100;82;21044;-45
2021/01/17 05:49:12;;;;;;;48.13;23.67;;;;;;;-12.50;41.92;99185.08;1719701;82;21604;-44
2021/01/17 05:51:41;;;;;;;64.77;26.07;;;;;;;-12.49;41.85;99185.38;1732438;82;21024;-44
2021/01/17 05:54:11;;;;;;;54.40;27.00;;;;;;;-12.49;41.84;99189.30;1748536;82;21754;-44
2021/01/17 05:56:39;;;;;;;52.38;26.30;;;;;;;-12.47;41.88;99197.70;1747341;82;21621;-44
2021/01/17 05:59:08;;;;;;;47.33;25.65;;;;;;;-12.49;41.82;99199.74;1740978;82;21039;-42
2021/01/17 06:01:37;;;;;;;52.38;25.10;;;;;;;-12.50;41.59;99200.75;1726969;82;21151;-42
2021/01/17 06:04:13;;;;;;;51.00;25.08;;;;;;;-12.53;41.67;99209.80;1729215;82;21174;-42
2021/01/17 06:06:41;;;;;;;53.48;26.42;;;;;;;-12.58;41.72;99203.61;1719408;82;22385;-42
2021/01/17 06:09:10;;;;;;;54.33;25.40;;;;;;;-12.49;41.62;99208.88;1689755;83;21122;-42
2021/01/17 06:11:39;;;;;;;51.20;26.05;;;;;;;-12.49;41.62;99215.41;1714122;82;21111;-42
2021/01/17 06:14:07;;;;;;;50.78;23.20;;;;;;;-12.47;41.74;99223.81;1741632;82;21151;-43
2021/01/17 06:16:40;;;;;;;52.20;24.63;;;;;;;-12.45;41.85;99227.02;1722994;82;21166;-42
2021/01/17 06:19:10;;;;;;;50.17;25.15;;;;;;;-12.45;41.83;99234.34;1748604;82;21368;-42
2021/01/17 06:21:39;;;;;;;52.55;26.12;;;;;;;-12.46;41.98;99235.36;1731263;82;24839;-42
2021/01/17 06:24:09;;;;;;;45.95;22.37;;;;;;;-12.43;42.16;99233.61;1719060;82;21154;-42
2021/01/17 06:26:41;;;;;;;53.87;26.15;;;;;;;-12.45;42.34;99231.73;1738449;82;21068;-42
2021/01/17 06:29:11;;;;;;;50.63;24.23;;;;;;;-12.43;42.34;99230.20;1743293;82;21167;-42
2021/01/17 06:31:39;;;;;;;52.30;25.80;;;;;;;-12.41;42.45;99234.71;1729129;82;22142;-42
2021/01/17 06:34:14;;;;;;;54.38;26.52;;;;;;;-12.36;42.45;99232.27;1744457;82;21133;-42
2021/01/17 06:36:46;;;;;;;54.42;26.42;;;;;;;-12.28;42.44;99238.50;1702884;83;21173;-42
2021/01/17 06:39:25;;;;;;;49.60;25.50;;;;;;;-12.26;42.68;99238.30;1651976;83;21604;-42
2021/01/17 06:41:57;;;;;;;51.60;25.25;;;;;;;-12.28;42.78;99237.70;1680249;84;21191;-42
2021/01/17 06:44:29;;;;;;;52.17;25.15;;;;;;;-12.37;42.75;99241.10;1669192;84;22097;-42
2021/01/17 06:46:58;;;;;;;53.23;24.60;;;;;;;-12.45;42.90;99242.69;1673955;85;21153;-43
2021/01/17 06:49:29;;;;;;;54.37;26.30;;;;;;;-12.54;43.15;99247.89;1679845;85;21079;-42
2021/01/17 06:51:57;;;;;;;51.50;25.32;;;;;;;-12.67;43.40;99240.13;1680692;85;21496;-42
2021/01/17 06:54:39;;;;;;;63.73;27.10;;;;;;;-12.98;43.92;99215.69;1678437;84;21296;-41
2021/01/17 06:57:07;;;;;;;57.75;28.40;;;;;;;-13.03;44.42;99235.58;1673042;85;21177;-42
2021/01/17 06:59:45;;;;;;;58.52;28.42;;;;;;;-13.25;45.09;99242.95;1669945;85;21161;-42
2021/01/17 07:02:27;;;;;;;67.12;29.25;;;;;;;-13.33;45.68;99243.20;1681129;85;21078;-42
2021/01/17 07:05:16;;;;;;;60.05;27.85;;;;;;;-13.37;46.19;99242.83;1682178;85;21571;-42
2021/01/17 07:08:02;;;;;;;64.47;28.70;;;;;;;-13.39;46.45;99249.24;1676961;85;21212;-42
2021/01/17 07:10:42;;;;;;;66.50;32.15;;;;;;;-13.34;46.76;99249.42;1674810;85;21588;-42
2021/01/17 07:13:11;;;;;;;71.87;33.80;;;;;;;-13.14;46.85;99248.02;1674368;85;21631;-42
2021/01/17 07:15:42;;;;;;;63.40;29.72;;;;;;;-12.97;46.91;99242.58;1652716;85;21061;-41
2021/01/17 07:18:15;;;;;;;66.55;32.63;;;;;;;-12.80;47.10;99248.88;1675554;85;21245;-41
2021/01/17 07:20:48;;;;;;;64.22;31.45;;;;;;;-12.67;47.03;99237.52;1675714;85;21188;-42
2021/01/17 07:23:18;;;;;;;72.35;32.03;;;;;;;-12.64;47.11;99244.45;1679664;85;21252;-42
2021/01/17 07:25:48;;;;;;;66.60;31.50;;;;;;;-12.51;47.21;99247.45;1673138;85;21229;-42
2021/01/17 07:28:20;;;;;;;63.50;29.72;;;;;;;-12.35;47.39;99232.56;1678079;85;21145;-42
2021/01/17 07:31:03;;;;;;;59.18;27.35;;;;;;;-12.16;47.46;99228.96;1671890;85;21627;-42
2021/01/17 07:33:35;;;;;;;53.65;26.85;;;;;;;-12.07;47.39;99224.25;1669934;84;21606;-42
2021/01/17 07:36:06;;;;;;;67.78;31.02;;;;;;;-12.05;47.69;99225.61;1686554;83;21389;-42
2021/01/17 07:38:36;;;;;;;62.38;29.82;;;;;;;-11.91;47.72;99228.38;1676572;84;21191;-42
2021/01/17 07:41:09;;;;;;;70.45;31.30;;;;;;;-11.77;47.83;99223.83;1676900;85;21173;-41
2021/01/17 07:43:43;;;;;;;70.03;29.20;;;;;;;-11.56;47.96;99222.02;1700952;83;21163;-42
2021/01/17 07:46:15;;;;;;;52.35;23.52;;;;;;;-11.38;48.25;99220.41;1696102;84;21143;-44
2021/01/17 07:48:49;;;;;;;39.98;18.23;;;;;;;-11.31;48.58;99221.91;1705139;84;21467;-42
2021/01/17 07:51:18;;;;;;;42.27;20.95;;;;;;;-11.38;49.20;99217.28;1703158;83;21052;-43
2021/01/17 07:54:14;;;;;;;41.35;20.08;;;;;;;-11.52;49.60;99218.48;1704248;84;21120;-42
2021/01/17 07:56:43;;;;;;;44.05;21.05;;;;;;;-11.51;50.12;99225.28;1699532;84;21196;-43
2021/01/17 07:59:11;;;;;;;52.40;23.52;;;;;;;-11.61;50.33;99217.95;1684109;84;21487;-43
2021/01/17 08:01:44;;;;;;;43.63;21.20;;;;;;;-11.63;50.78;99207.44;1685962;84;21384;-43
2021/01/17 08:04:18;;;;;;;42.38;19.35;;;;;;;-11.47;51.21;99210.73;1698064;83;21853;-43
2021/01/17 08:06:49;;;;;;;46.70;22.27;;;;;;;-11.38;51.16;99217.80;1701598;84;21159;-43
2021/01/17 08:09:19;;;;;;;51.35;23.98;;;;;;;-11.24;51.20;99218.71;1705265;84;21156;-43
2021/01/17 08:11:52;;;;;;;43.92;22.50;;;;;;;-11.01;51.33;99229.25;1712721;82;21199;-42
2021/01/17 08:14:30;;;;;;;41.02;19.87;;;;;;;-10.60;51.27;99219.25;1705385;84;21212;-42
2021/01/17 08:17:17;;;;;;;45.58;21.00;;;;;;;-10.36;50.84;99218.78;1703935;84;21123;-43
2021/01/17 08:19:56;;;;;;;46.63;23.30;;;;;;;-10.33;50.40;99217.01;1705519;83;21574;-43
2021/01/17 08:22:30;;;;;;;48.25;21.87;;;;;;;-10.26;50.53;99213.75;1699844;83;21204;-43
2021/01/17 08:25:05;;;;;;;46.40;23.85;;;;;;;-9.96;50.50;99216.72;1699967;84;21178;-43
2021/01/17 08:27:45;;;;;;;47.67;23.15;;;;;;;-9.65;50.36;99216.34;1702356;83;21374;-42
2021/01/17 08:30:19;;;;;;;43.65;21.82;;;;;;;-9.27;50.31;99216.56;1692501;83;21784;-42
2021/01/17 08:32:54;;;;;;;41.13;22.02;;;;;;;-8.93;49.28;99222.69;1685935;84;21036;-43
2021/01/17 08:35:28;;;;;;;39.95;21.48;;;;;;;-8.68;48.86;99228.89;1702053;83;21195;-42
2021/01/17 08:38:10;;;;;;;38.73;18.73;;;;;;;-8.39;48.49;99222.53;1703177;84;21119;-43
2021/01/17 08:40:42;;;;;;;44.75;21.70;;;;;;;-8.00;47.69;99216.75;1700624;84;21212;-43
2021/01/17 08:43:12;;;;;;;39.18;21.10;;;;;;;-7.75;47.21;99220.25;1677011;85;21179;-43
2021/01/17 08:45:45;;;;;;;31.27;15.88;;;;;;;-7.65;47.08;99220.89;1703182;83;21748;-43
2021/01/17 08:48:20;;;;;;;33.25;16.65;;;;;;;-7.38;46.83;99213.05;1700303;83;21106;-43
2021/01/17 08:50:56;;;;;;;33.85;17.15;;;;;;;-7.02;46.63;99213.71;1698888;83;21150;-43
2021/01/17 08:53:32;;;;;;;31.70;17.12;;;;;;;-6.56;45.84;99207.00;1702008;83;21262;-43
2021/01/17 08:56:05;;;;;;;30.68;15.65;;;;;;;-6.17;44.84;99216.78;1704453;83;21147;-42
2021/01/17 08:58:41;;;;;;;34.80;18.30;;;;;;;-6.18;43.75;99209.39;1702366;83;21173;-43
2021/01/17 09:01:09;;;;;;;37.20;19.45;;;;;;;-6.40;43.54;99215.83;1697843;83;21143;-42
2021/01/17 09:03:46;;;;;;;30.65;15.55;;;;;;;-6.58;44.09;99211.71;1685305;83;21163;-43
2021/01/17 09:06:20;;;;;;;31.95;18.35;;;;;;;-6.83;44.00;99214.95;1704873;83;22272;-43
2021/01/17 09:08:57;;;;;;;29.45;15.98;;;;;;;-7.41;44.74;99210.39;1704808;83;21151;-42
2021/01/17 09:11:37;;;;;;;20.80;9.90;;;;;;;-7.92;45.43;99216.84;1702064;83;21206;-43
2021/01/17 09:14:22;;;;;;;27.00;15.25;;;;;;;-8.18;46.41;99212.29;1697091;83;21162;-43
2021/01/17 09:17:01;;;;;;;28.92;16.60;;;;;;;-8.29;47.41;99214.52;1703721;84;21159;-43
2021/01/17 09:19:35;;;;;;;36.63;18.48;;;;;;;-8.26;47.65;99211.36;1704309;83;21194;-43
2021/01/17 09:22:06;;;;;;;34.58;17.00;;;;;;;-8.25;48.20;99205.88;1704397;83;21167;-43
2021/01/17 09:24:36;;;;;;;30.05;16.60;;;;;;;-8.14;47.82;99207.62;1705078;84;21127;-43
2021/01/17 09:27:07;;;;;;;32.42;17.42;;;;;;;-8.12;47.82;99209.98;1680661;84;21052;-44
2021/01/17 09:29:41;;;;;;;37.38;20.20;;;;;;;-8.01;48.17;99205.16;1705329;83;21621;-43
2021/01/17 09:32:16;;;;;;;43.10;22.22;;;;;;;-7.89;48.60;99200.59;1697877;84;21372;-43
2021/01/17 09:34:47;;;;;;;42.88;21.75;;;;;;;-7.64;48.17;99199.58;1705219;84;21159;-43
2021/01/17 09:37:21;;;;;;;45.50;23.73;;;;;;;-7.35;47.85;99200.69;1716217;83;25049;-43
2021/01/17 09:39:52;;;;;;;48.23;28.57;;;;;;;-7.06;47.76;99203.38;1717538;82;21179;-43
2021/01/17 09:42:23;;;;;;;42.30;19.92;;;;;;;-6.66;47.24;99194.52;1692050;83;21174;-43
2021/01/17 09:44:58;;;;;;;52.67;26.45;;;;;;;-6.42;46.51;99196.29;1714761;82;22371;-42
2021/01/17 09:47:27;;;;;;;55.00;27.17;;;;;;;-6.16;45.96;99193.31;1716459;83;21242;-43
2021/01/17 09:50:12;;;;;;;50.17;24.82;;;;;;;-5.90;45.20;99192.39;1691342;83;21178;-43
2021/01/17 09:52:42;;;;;;;45.92;24.30;;;;;;;-5.71;44.95;99191.39;1707103;83;21170;-43
2021/01/17 09:55:10;;;;;;;;;;;;;;;-5.45;44.68;99185.70;1716351;83;21651;-43
2021/01/17 09:57:41;;;;;;;30.10;16.93;;;;;;;-5.24;43.98;99179.42;1673379;85;21214;-43
2021/01/17 10:00:19;;;;;;;35.68;16.62;;;;;;;-5.15;43.75;99184.98;1717434;83;21147;-42
2021/01/17 10:02:47;;;;;;;31.27;16.40;;;;;;;-5.04;43.28;99182.64;1713363;83;21182;-43
2021/01/17 10:05:29;;;;;;;35.48;17.55;;;;;;;-4.97;42.59;99185.29;1717201;83;21134;-43
2021/01/17 10:08:03;;;;;;;34.45;18.30;;;;;;;-4.88;42.47;99182.39;1696741;83;21190;-42
2021/01/17 10:10:37;;;;;;;30.37;15.83;;;;;;;-5.22;42.33;99187.88;1711543;83;21083;-42
2021/01/17 10:13:07;;;;;;;25.02;14.10;;;;;;;-5.22;42.33;99187.88;1718856;83;22221;-43
2021/01/17 10:18:23;;;;;;;29.85;14.00;;;;;;;-5.18;42.12;99186.84;1836055;78;22624;-42
2021/01/17 10:20:55;;;;;;;24.23;12.47;;;;;;;-5.21;42.07;99183.38;1808508;79;21620;-42
2021/01/17 10:23:29;;;;;;;22.98;12.18;;;;;;;-5.11;41.88;99176.28;1797164;79;21544;-42
2021/01/17 10:25:57;;;;;;;25.05;12.53;;;;;;;-4.96;41.86;99171.02;1791768;79;20988;-42
2021/01/17 10:28:28;;;;;;;23.52;11.93;;;;;;;-4.78;41.64;99171.02;1808158;79;21561;-41
2021/01/17 10:31:02;;;;;;;21.93;12.05;;;;;;;-4.63;41.18;99164.95;1808009;79;20972;-41
2021/01/17 10:33:31;;;;;;;23.73;11.55;;;;;;;-4.40;40.38;99171.02;1808113;79;20957;-42
2021/01/17 10:36:00;;;;;;;;;;;;;;;-4.40;40.38;99171.02;1781419;79;22298;-42
2021/01/17 10:38:30;;;;;;;26.02;12.20;;;;;;;-4.25;40.42;99171.53;1751235;79;20149;-41
2021/01/17 10:40:58;;;;;;;22.37;11.65;;;;;;;-4.10;40.14;99163.03;1770759;79;21575;-42
2021/01/17 10:43:33;;;;;;;23.05;13.18;;;;;;;-3.78;39.79;99161.91;1777740;79;21534;-42
2021/01/17 10:46:18;;;;;;;23.47;12.53;;;;;;;-3.56;39.22;99161.01;1775991;80;21170;-42
2021/01/17 10:48:54;;;;;;;26.35;13.10;;;;;;;-3.43;38.40;99157.76;1786270;77;22213;-42
2021/01/17 10:51:30;;;;;;;23.55;11.78;;;;;;;-3.59;37.94;99150.97;1792358;77;20999;-42
2021/01/17 10:54:00;;;;;;;24.47;12.95;;;;;;;-3.79;38.00;99158.45;1788716;79;21134;-41
2021/01/17 10:56:30;;;;;;;22.15;11.85;;;;;;;-3.72;38.08;99156.83;1789402;79;20960;-42
2021/01/17 10:58:58;;;;;;;22.07;11.70;;;;;;;-3.56;38.54;99153.06;1776365;80;21138;-42
2021/01/17 11:01:33;;;;;;;;;;;;;;;-3.34;37.52;99154.03;1781117;79;21370;-42
2021/01/17 11:04:01;;;;;;;27.77;14.25;;;;;;;-3.14;37.44;99157.86;1787598;79;20256;-42
2021/01/17 11:06:29;;;;;;;20.97;12.50;;;;;;;-2.97;37.29;99152.20;1789957;79;21177;-41
2021/01/17 11:08:59;;;;;;;25.40;13.53;;;;;;;-2.77;36.46;99157.37;1784957;79;21035;-42
2021/01/17 11:11:29;;;;;;;24.30;13.83;;;;;;;-2.67;36.54;99155.44;1795691;79;24133;-42
2021/01/17 11:14:01;;;;;;;27.70;13.95;;;;;;;-2.44;36.32;99153.11;1807256;79;22262;-42
2021/01/17 11:16:42;;;;;;;29.30;15.43;;;;;;;-2.11;36.04;99145.62;1778891;79;21011;-42
2021/01/17 11:19:14;;;;;;;28.02;15.60;;;;;;;-1.78;35.56;99154.55;1795007;79;21158;-41
2021/01/17 11:21:49;;;;;;;28.55;15.60;;;;;;;-1.48;35.30;99148.88;1794298;79;21170;-42
2021/01/17 11:24:15;;;;;;;32.95;16.25;;;;;;;-1.18;34.83;99150.88;1800084;79;21138;-42
2021/01/17 11:26:43;;;;;;;25.88;14.23;;;;;;;-0.97;34.66;99148.96;1784072;78;21466;-42
2021/01/17 11:29:15;;;;;;;30.05;15.85;;;;;;;-0.69;33.90;99148.55;1753750;80;21608;-42
2021/01/17 11:31:46;;;;;;;30.60;17.37;;;;;;;-0.64;33.91;99143.69;1791159;79;21027;-42
2021/01/17 11:34:15;;;;;;;25.00;14.85;;;;;;;-0.54;33.60;99144.32;1786546;79;21536;-42
2021/01/17 11:36:43;;;;;;;25.97;15.43;;;;;;;-0.45;32.53;99139.91;1792802;78;21178;-42
2021/01/17 11:39:21;;;;;;;25.12;14.15;;;;;;;-0.96;33.04;99137.24;1793314;79;21451;-43